createdAt,value
2019-05-17T00:00:37.125Z,13.00
2019-05-17T00:05:37.706Z,12.94
2019-05-17T00:10:39.041Z,12.99
2019-05-17T00:15:40.557Z,13.00
2019-05-17T00:20:42.032Z,13.02
2019-05-17T00:25:43.524Z,12.98
2019-05-17T00:30:46.479Z,12.94
2019-05-17T00:35:48.170Z,12.82
2019-05-17T00:40:49.456Z,12.82
2019-05-17T00:45:50.938Z,12.77
2019-05-17T00:50:54.136Z,12.71
2019-05-17T00:55:57.361Z,12.64
2019-05-17T01:00:59.027Z,12.61
2019-05-17T01:06:00.528Z,12.50
2019-05-17T01:11:02.058Z,12.49
2019-05-17T01:16:03.446Z,12.52
2019-05-17T01:21:06.442Z,12.51
2019-05-17T01:26:08.095Z,12.56
2019-05-17T01:31:09.637Z,12.57
2019-05-17T01:36:11.117Z,12.52
2019-05-17T01:41:12.636Z,12.51
2019-05-17T01:46:17.024Z,12.49
2019-05-17T01:51:18.461Z,12.54
2019-05-17T01:56:19.929Z,12.49
2019-05-17T02:01:21.464Z,12.44
2019-05-17T02:06:22.957Z,12.41
2019-05-17T02:11:26.764Z,12.38
2019-05-17T02:16:27.882Z,12.38
2019-05-17T02:21:29.373Z,12.39
2019-05-17T02:26:30.900Z,12.36
2019-05-17T02:31:32.958Z,12.35
2019-05-17T02:36:34.570Z,12.34
2019-05-17T02:41:36.108Z,12.37
2019-05-17T02:46:37.659Z,12.43
2019-05-17T02:51:39.184Z,12.35
2019-05-17T02:56:43.553Z,12.29
2019-05-17T03:01:44.496Z,12.26
2019-05-17T03:06:45.997Z,12.19
2019-05-17T03:11:47.506Z,12.12
2019-05-17T03:16:48.954Z,12.06
2019-05-17T03:21:53.302Z,12.02
2019-05-17T03:26:53.758Z,12.00
2019-05-17T03:32:00.048Z,11.96
2019-05-17T03:36:58.658Z,11.97
2019-05-17T03:42:02.636Z,11.93
2019-05-17T03:47:03.493Z,11.86
2019-05-17T03:52:04.773Z,11.91
2019-05-17T03:57:06.045Z,11.90
2019-05-17T04:02:07.552Z,11.94
2019-05-17T04:07:09.054Z,12.11
2019-05-17T04:12:13.652Z,12.00
2019-05-17T04:17:14.872Z,12.00
2019-05-17T04:22:16.396Z,12.01
2019-05-17T04:27:17.802Z,12.05
2019-05-17T04:32:19.264Z,12.05
2019-05-17T04:37:22.809Z,12.05
2019-05-17T04:42:24.422Z,12.01
2019-05-17T04:47:25.821Z,12.06
2019-05-17T04:52:27.398Z,12.18
2019-05-17T04:57:32.332Z,12.23
2019-05-17T05:02:33.216Z,12.32
2019-05-17T05:07:34.946Z,12.42
2019-05-17T05:12:36.465Z,12.51
2019-05-17T05:17:37.987Z,12.59
2019-05-17T05:22:42.298Z,12.69
2019-05-17T05:27:43.085Z,12.77
2019-05-17T05:32:44.630Z,12.85
2019-05-17T05:37:46.322Z,12.88
2019-05-17T05:42:47.827Z,12.92
2019-05-17T05:47:49.379Z,13.06
2019-05-17T05:52:52.428Z,13.25
2019-05-17T05:57:54.024Z,13.39
2019-05-17T06:02:55.572Z,13.50
2019-05-17T06:07:57.033Z,13.72
2019-05-17T06:12:58.618Z,13.89
2019-05-17T06:18:03.019Z,14.16
2019-05-17T06:23:04.848Z,14.24
2019-05-17T06:28:06.361Z,14.34
2019-05-17T06:33:07.828Z,14.58
2019-05-17T06:38:11.796Z,14.65
2019-05-17T06:43:13.373Z,14.85
2019-05-17T06:48:15.708Z,14.96
2019-05-17T06:53:17.199Z,15.25
2019-05-17T06:58:18.770Z,15.51
2019-05-17T07:03:20.251Z,15.39
2019-05-17T07:08:21.725Z,15.28
2019-05-17T07:13:23.267Z,15.55
2019-05-17T07:18:24.733Z,15.77
2019-05-17T07:23:26.237Z,15.66
2019-05-17T07:28:30.246Z,16.05
2019-05-17T07:33:32.018Z,16.31
2019-05-17T07:38:33.411Z,16.85
2019-05-17T07:43:35.022Z,17.27
2019-05-17T07:48:36.555Z,17.11
2019-05-17T07:53:40.067Z,16.91
2019-05-17T07:58:41.380Z,16.88
2019-05-17T08:03:42.873Z,16.99
2019-05-17T08:08:44.436Z,17.07
2019-05-17T08:13:45.830Z,17.32
2019-05-17T08:18:49.537Z,17.36
2019-05-17T08:23:50.826Z,17.26
2019-05-17T08:28:52.465Z,17.13
2019-05-17T08:33:53.971Z,17.55
2019-05-17T08:38:55.523Z,17.70
2019-05-17T08:43:57.074Z,18.22
2019-05-17T08:49:00.282Z,18.15
2019-05-17T08:54:02.118Z,17.98
2019-05-17T08:59:03.706Z,18.45
2019-05-17T09:04:05.346Z,18.64
2019-05-17T09:09:06.820Z,18.81
2019-05-17T09:14:10.253Z,19.24
2019-05-17T09:19:11.730Z,19.34
2019-05-17T09:24:13.224Z,19.37
2019-05-17T09:29:14.801Z,19.50
2019-05-17T09:34:16.327Z,19.01
2019-05-17T09:39:19.962Z,19.03
2019-05-17T09:44:21.267Z,19.14
2019-05-17T09:49:22.740Z,19.39
2019-05-17T09:54:38.954Z,19.61
2019-05-17T09:59:29.702Z,19.96
2019-05-17T10:04:31.272Z,19.79
2019-05-17T10:09:32.828Z,19.85
2019-05-17T10:14:34.462Z,19.92
2019-05-17T10:19:36.018Z,19.58
2019-05-17T10:24:42.022Z,19.87
2019-05-17T10:29:42.115Z,19.91
2019-05-17T10:34:43.656Z,19.78
2019-05-17T10:39:45.212Z,19.41
2019-05-17T10:44:47.902Z,19.48
2019-05-17T10:49:50.219Z,19.58
2019-05-17T10:54:51.677Z,19.74
2019-05-17T10:59:53.189Z,19.86
2019-05-17T11:04:54.785Z,20.02
2019-05-17T11:09:56.248Z,20.28
2019-05-17T11:15:10.367Z,20.13
2019-05-17T11:20:01.406Z,20.27
2019-05-17T11:25:03.535Z,20.65
2019-05-17T11:30:05.181Z,21.15
2019-05-17T11:35:06.700Z,21.66
2019-05-17T11:40:08.528Z,21.88
2019-05-17T11:45:14.815Z,22.11
2019-05-17T11:50:13.850Z,22.12
2019-05-17T11:55:15.343Z,22.41
2019-05-17T12:00:16.895Z,21.77
2019-05-17T12:05:18.376Z,21.35
2019-05-17T12:10:19.973Z,21.18
2019-05-17T12:15:21.460Z,21.64
2019-05-17T12:20:22.974Z,21.42
2019-05-17T12:25:24.522Z,21.21
2019-05-17T12:30:25.998Z,21.32
2019-05-17T12:35:27.638Z,21.46
2019-05-17T12:40:29.212Z,21.91
2019-05-17T12:45:30.744Z,21.68
2019-05-17T12:50:32.310Z,21.61
2019-05-17T12:55:33.883Z,20.90
2019-05-17T13:00:35.413Z,20.48
2019-05-17T13:05:36.854Z,20.29
2019-05-17T13:10:38.397Z,20.21
2019-05-17T13:15:39.863Z,20.13
2019-05-17T13:20:41.474Z,20.11
2019-05-17T13:25:43.854Z,19.98
2019-05-17T13:30:45.358Z,19.82
2019-05-17T13:35:46.893Z,20.08
2019-05-17T13:40:48.409Z,19.85
2019-05-17T13:45:49.947Z,19.59
2019-05-17T13:50:52.194Z,19.79
2019-05-17T13:55:53.968Z,19.87
2019-05-17T14:00:55.474Z,19.66
2019-05-17T14:05:57.022Z,19.79
2019-05-17T14:10:58.600Z,19.97
2019-05-17T14:16:00.123Z,20.00
2019-05-17T14:21:01.584Z,20.16
2019-05-17T14:26:03.182Z,20.05
2019-05-17T14:31:04.862Z,19.97
2019-05-17T14:36:06.446Z,19.56
2019-05-17T14:41:08.883Z,19.19
2019-05-17T14:46:10.721Z,19.09
2019-05-17T14:51:12.246Z,18.96
2019-05-17T14:56:13.825Z,18.94
2019-05-17T15:01:15.388Z,18.92
2019-05-17T15:06:17.044Z,18.86
2019-05-17T15:11:18.580Z,18.66
2019-05-17T15:16:20.221Z,18.34
2019-05-17T15:21:21.770Z,18.20
2019-05-17T15:26:23.209Z,17.94
2019-05-17T15:31:24.756Z,17.55
2019-05-17T15:36:26.104Z,17.31
2019-05-17T15:41:27.612Z,17.26
2019-05-17T15:46:29.165Z,17.28
2019-05-17T15:51:30.802Z,17.46
2019-05-17T15:56:32.452Z,17.01
2019-05-17T16:01:34.148Z,17.09
2019-05-17T16:06:35.767Z,16.97
2019-05-17T16:11:37.231Z,16.81
2019-05-17T16:16:38.738Z,16.77
2019-05-17T16:21:40.235Z,16.78
2019-05-17T16:26:41.640Z,16.83
2019-05-17T16:31:43.059Z,16.91
2019-05-17T16:36:44.311Z,16.82
2019-05-17T16:41:45.810Z,16.78
2019-05-17T16:46:47.549Z,16.69
2019-05-17T16:51:49.094Z,16.58
2019-05-17T16:56:53.167Z,16.57
2019-05-17T17:01:55.326Z,16.55
2019-05-17T17:06:56.890Z,16.57
2019-05-17T17:11:58.320Z,16.43
2019-05-17T17:16:59.846Z,16.33
2019-05-17T17:22:01.888Z,16.37
2019-05-17T17:27:03.240Z,16.32
2019-05-17T17:32:04.671Z,16.30
2019-05-17T17:37:08.121Z,16.28
2019-05-17T17:42:09.638Z,16.23
2019-05-17T17:47:10.951Z,16.18
2019-05-17T17:52:12.589Z,16.14
2019-05-17T17:57:14.128Z,16.17
2019-05-17T18:02:15.437Z,16.12
2019-05-17T18:07:16.961Z,16.03
2019-05-17T18:12:18.551Z,16.02
2019-05-17T18:17:20.198Z,15.95
2019-05-17T18:22:21.741Z,15.76
2019-05-17T18:27:27.756Z,15.62
2019-05-17T18:32:31.249Z,15.47
2019-05-17T18:37:32.782Z,15.34
2019-05-17T18:42:34.373Z,15.18
2019-05-17T18:47:36.146Z,15.10
2019-05-17T18:52:37.802Z,15.01
2019-05-17T18:57:39.328Z,14.98
2019-05-17T19:02:40.893Z,14.94
2019-05-17T19:07:42.424Z,14.92
2019-05-17T19:12:44.045Z,14.85
2019-05-17T19:17:45.546Z,14.80
2019-05-17T19:22:47.170Z,14.82
2019-05-17T19:27:48.994Z,14.77
2019-05-17T19:32:50.457Z,14.72
2019-05-17T19:37:52.003Z,14.65
2019-05-17T19:42:53.910Z,14.60
2019-05-17T19:47:55.677Z,14.55
2019-05-17T19:52:57.273Z,14.42
2019-05-17T19:57:58.855Z,14.39
2019-05-17T20:03:00.807Z,14.37
2019-05-17T20:08:02.422Z,14.31
2019-05-17T20:13:04.134Z,14.20
2019-05-17T20:18:05.682Z,14.11
2019-05-17T20:23:07.314Z,14.06
2019-05-17T20:28:08.814Z,13.96
2019-05-17T20:33:10.369Z,13.92
2019-05-17T20:38:11.868Z,13.92
2019-05-17T20:43:13.411Z,13.91
2019-05-17T20:48:15.615Z,13.88
2019-05-17T20:53:19.307Z,13.88
2019-05-17T20:58:20.634Z,13.86
2019-05-17T21:03:22.110Z,13.84
2019-05-17T21:08:26.521Z,13.83
2019-05-17T21:13:27.029Z,13.81
2019-05-17T21:18:28.602Z,13.80
2019-05-17T21:23:30.124Z,13.77
2019-05-17T21:28:31.668Z,13.77
2019-05-17T21:33:33.208Z,13.69
2019-05-17T21:38:34.713Z,13.68
2019-05-17T21:43:36.279Z,13.68
2019-05-17T21:48:37.706Z,13.65
2019-05-17T21:53:39.276Z,13.62
2019-05-17T21:58:40.795Z,13.49
2019-05-17T22:03:42.200Z,13.41
2019-05-17T22:08:43.727Z,13.40
2019-05-17T22:13:45.230Z,13.39
2019-05-17T22:18:46.817Z,13.37
2019-05-17T22:23:48.236Z,13.37
2019-05-17T22:28:49.736Z,13.39
2019-05-17T22:33:51.277Z,13.41
2019-05-17T22:38:52.799Z,13.41
2019-05-17T22:43:54.373Z,13.37
2019-05-17T22:48:55.863Z,13.33
2019-05-17T22:53:57.442Z,13.26
2019-05-17T22:58:59.021Z,13.06
2019-05-17T23:04:00.517Z,12.80
2019-05-17T23:09:02.063Z,12.59
2019-05-17T23:14:03.695Z,12.52
2019-05-17T23:19:05.208Z,12.57
2019-05-17T23:24:06.715Z,12.40
2019-05-17T23:29:11.039Z,12.39
2019-05-17T23:34:12.536Z,12.45
2019-05-17T23:39:14.035Z,12.42
2019-05-17T23:44:15.560Z,12.50
2019-05-17T23:49:17.107Z,12.64
2019-05-17T23:54:18.526Z,12.76
2019-05-17T23:59:19.944Z,12.79
